createdAt,value
2023-05-19T00:00:11.980Z,19.68
2023-05-19T00:02:41.092Z,19.65
2023-05-19T00:05:11.767Z,19.50
2023-05-19T00:07:41.547Z,19.53
2023-05-19T00:10:10.709Z,19.59
2023-05-19T00:12:40.347Z,19.46
2023-05-19T00:15:09.844Z,19.44
2023-05-19T00:17:39.791Z,19.39
2023-05-19T00:20:09.747Z,19.60
2023-05-19T00:22:38.447Z,19.48
2023-05-19T00:25:07.710Z,19.49
2023-05-19T00:27:36.372Z,19.66
2023-05-19T00:30:04.644Z,19.73
2023-05-19T00:32:32.956Z,19.58
2023-05-19T00:35:01.172Z,19.46
2023-05-19T00:37:29.735Z,19.52
2023-05-19T00:39:58.671Z,19.44
2023-05-19T00:42:27.303Z,19.61
2023-05-19T00:44:55.907Z,19.78
2023-05-19T00:47:23.958Z,19.80
2023-05-19T00:49:52.097Z,19.63
2023-05-19T00:52:20.740Z,19.62
2023-05-19T00:54:50.739Z,19.60
2023-05-19T00:57:19.848Z,19.47
2023-05-19T00:59:50.106Z,19.49
2023-05-19T01:02:19.432Z,19.29
2023-05-19T01:04:48.474Z,19.25
2023-05-19T01:07:17.414Z,19.27
2023-05-19T01:09:48.705Z,19.31
2023-05-19T01:12:17.339Z,19.13
2023-05-19T01:14:46.336Z,19.18
2023-05-19T01:17:15.411Z,18.99
2023-05-19T01:19:48.193Z,19.11
2023-05-19T01:22:25.425Z,19.13
2023-05-19T01:25:14.540Z,19.03
2023-05-19T01:28:07.669Z,18.98
2023-05-19T01:30:41.541Z,19.01
2023-05-19T01:33:11.379Z,18.98
2023-05-19T01:35:40.636Z,19.01
2023-05-19T01:38:12.776Z,18.99
2023-05-19T01:40:42.107Z,18.95
2023-05-19T01:43:15.063Z,18.77
2023-05-19T01:45:43.761Z,18.80
2023-05-19T01:48:13.326Z,18.74
2023-05-19T01:50:41.913Z,18.80
2023-05-19T01:53:10.238Z,18.70
2023-05-19T01:55:44.934Z,18.61
2023-05-19T01:58:24.267Z,18.57
2023-05-19T02:00:55.885Z,18.56
2023-05-19T02:03:36.375Z,18.50
2023-05-19T02:06:25.278Z,18.40
2023-05-19T02:09:02.555Z,18.26
2023-05-19T02:11:30.827Z,18.20
2023-05-19T02:14:02.542Z,18.19
2023-05-19T02:16:31.028Z,17.87
2023-05-19T02:19:00.178Z,18.00
2023-05-19T02:21:28.483Z,17.94
2023-05-19T02:23:56.806Z,17.87
2023-05-19T02:26:25.041Z,17.71
2023-05-19T02:28:53.158Z,17.50
2023-05-19T02:31:21.536Z,17.60
2023-05-19T02:33:49.216Z,17.64
2023-05-19T02:36:17.624Z,17.58
2023-05-19T02:38:45.529Z,17.48
2023-05-19T02:41:13.820Z,17.40
2023-05-19T02:43:42.154Z,17.40
2023-05-19T02:46:10.379Z,17.27
2023-05-19T02:48:38.556Z,17.27
2023-05-19T02:51:06.974Z,17.25
2023-05-19T02:53:35.300Z,17.17
2023-05-19T02:56:03.622Z,17.17
2023-05-19T02:58:32.266Z,17.05
2023-05-19T03:01:00.603Z,16.99
2023-05-19T03:03:30.242Z,16.90
2023-05-19T03:05:58.901Z,16.83
2023-05-19T03:08:26.798Z,16.66
2023-05-19T03:10:56.053Z,16.70
2023-05-19T03:13:24.407Z,16.56
2023-05-19T03:15:53.805Z,16.56
2023-05-19T03:18:22.825Z,16.54
2023-05-19T03:20:51.334Z,16.43
2023-05-19T03:23:19.158Z,16.38
2023-05-19T03:25:47.250Z,16.34
2023-05-19T03:28:15.160Z,16.34
2023-05-19T03:30:43.297Z,16.35
2023-05-19T03:33:11.842Z,16.30
2023-05-19T03:35:39.890Z,16.26
2023-05-19T03:38:08.172Z,16.17
2023-05-19T03:40:36.530Z,16.13
2023-05-19T03:43:04.851Z,16.20
2023-05-19T03:45:33.127Z,16.13
2023-05-19T03:48:01.572Z,16.21
2023-05-19T03:50:30.226Z,16.15
2023-05-19T03:52:58.720Z,16.09
2023-05-19T03:55:27.121Z,16.09
2023-05-19T03:57:55.487Z,16.02
2023-05-19T04:00:24.395Z,15.95
2023-05-19T04:02:53.143Z,15.94
2023-05-19T04:05:22.254Z,15.90
2023-05-19T04:07:50.603Z,15.86
2023-05-19T04:10:18.905Z,15.85
2023-05-19T04:12:47.532Z,15.73
2023-05-19T04:15:16.864Z,15.74
2023-05-19T04:17:44.803Z,15.61
2023-05-19T04:20:13.022Z,15.62
2023-05-19T04:22:41.336Z,15.57
2023-05-19T04:25:11.204Z,15.51
2023-05-19T04:27:40.552Z,15.40
2023-05-19T04:30:09.102Z,15.41
2023-05-19T04:32:38.995Z,15.40
2023-05-19T04:35:07.711Z,15.39
2023-05-19T04:37:38.959Z,15.35
2023-05-19T04:40:07.687Z,15.39
2023-05-19T04:42:35.947Z,15.41
2023-05-19T04:45:06.794Z,15.28
2023-05-19T04:47:38.138Z,15.20
2023-05-19T04:50:07.295Z,15.18
2023-05-19T04:52:35.571Z,15.13
2023-05-19T04:55:03.880Z,15.05
2023-05-19T04:57:33.710Z,15.09
2023-05-19T05:00:02.723Z,15.00
2023-05-19T05:02:30.862Z,14.91
2023-05-19T05:04:59.042Z,14.87
2023-05-19T05:07:27.009Z,14.76
2023-05-19T05:09:55.288Z,14.74
2023-05-19T05:12:23.747Z,14.66
2023-05-19T05:14:52.624Z,14.66
2023-05-19T05:17:21.848Z,14.67
2023-05-19T05:19:50.083Z,14.64
2023-05-19T05:22:18.492Z,14.77
2023-05-19T05:24:47.483Z,14.66
2023-05-19T05:27:15.945Z,14.65
2023-05-19T05:29:44.302Z,14.63
2023-05-19T05:32:12.666Z,14.57
2023-05-19T05:34:42.381Z,14.60
2023-05-19T05:37:10.851Z,14.63
2023-05-19T05:39:39.484Z,14.52
2023-05-19T05:42:07.472Z,14.52
2023-05-19T05:44:37.086Z,14.49
2023-05-19T05:47:05.564Z,14.43
2023-05-19T05:49:33.938Z,14.37
2023-05-19T05:52:06.377Z,14.30
2023-05-19T05:54:35.162Z,14.27
2023-05-19T05:57:03.592Z,14.17
2023-05-19T05:59:31.997Z,14.12
2023-05-19T06:02:00.681Z,14.21
2023-05-19T06:04:29.133Z,14.13
2023-05-19T06:07:02.402Z,14.07
2023-05-19T06:09:35.170Z,14.04
2023-05-19T06:12:03.367Z,13.81
2023-05-19T06:14:31.724Z,13.91
2023-05-19T06:16:59.847Z,13.81
2023-05-19T06:19:28.156Z,13.82
2023-05-19T06:21:55.960Z,13.75
2023-05-19T06:24:24.070Z,13.76
2023-05-19T06:26:52.111Z,13.70
2023-05-19T06:29:20.251Z,13.61
2023-05-19T06:31:48.757Z,13.56
2023-05-19T06:34:18.780Z,13.47
2023-05-19T06:36:47.145Z,13.46
2023-05-19T06:39:15.295Z,13.38
2023-05-19T06:41:43.614Z,13.36
2023-05-19T06:44:12.779Z,13.42
2023-05-19T06:46:40.773Z,13.30
2023-05-19T06:49:09.095Z,13.26
2023-05-19T06:51:38.335Z,13.17
2023-05-19T06:54:06.238Z,13.07
2023-05-19T06:56:34.545Z,13.07
2023-05-19T06:59:02.878Z,13.02
2023-05-19T07:01:31.335Z,13.05
2023-05-19T07:03:59.554Z,13.10
2023-05-19T07:06:28.240Z,12.96
2023-05-19T07:08:56.554Z,12.92
2023-05-19T07:11:25.390Z,12.97
2023-05-19T07:13:53.753Z,12.90
2023-05-19T07:16:22.222Z,12.86
2023-05-19T07:18:50.623Z,12.89
2023-05-19T07:21:19.049Z,12.86
2023-05-19T07:23:47.413Z,12.97
2023-05-19T07:26:15.732Z,12.94
2023-05-19T07:28:44.911Z,12.86
2023-05-19T07:31:13.248Z,12.85
2023-05-19T07:33:41.650Z,12.81
2023-05-19T07:36:10.092Z,12.82
2023-05-19T07:38:38.458Z,12.82
2023-05-19T07:41:06.809Z,12.84
2023-05-19T07:43:35.573Z,12.79
2023-05-19T07:46:03.990Z,12.72
2023-05-19T07:48:32.382Z,12.72
2023-05-19T07:51:00.291Z,12.72
2023-05-19T07:53:30.355Z,12.72
2023-05-19T07:55:58.943Z,12.66
2023-05-19T07:58:28.375Z,12.68
2023-05-19T08:00:59.038Z,12.53
2023-05-19T08:03:28.150Z,12.64
2023-05-19T08:05:56.863Z,12.60
2023-05-19T08:08:25.323Z,12.55
2023-05-19T08:10:53.683Z,12.52
2023-05-19T08:13:22.053Z,12.42
2023-05-19T08:15:50.477Z,12.39
2023-05-19T08:18:18.909Z,12.32
2023-05-19T08:20:47.368Z,12.30
2023-05-19T08:23:15.842Z,12.30
2023-05-19T08:25:44.151Z,12.14
2023-05-19T08:28:12.654Z,12.17
2023-05-19T08:30:41.936Z,12.16
2023-05-19T08:33:09.808Z,12.10
2023-05-19T08:35:38.135Z,12.09
2023-05-19T08:38:06.471Z,11.99
2023-05-19T08:40:35.283Z,11.99
2023-05-19T08:43:03.325Z,11.93
2023-05-19T08:45:32.177Z,11.88
2023-05-19T08:48:00.679Z,11.85
2023-05-19T08:50:32.155Z,11.75
2023-05-19T08:53:02.914Z,11.76
2023-05-19T08:55:42.595Z,11.72
2023-05-19T08:58:11.523Z,11.67
2023-05-19T09:00:40.607Z,11.62
2023-05-19T09:03:18.133Z,11.60
2023-05-19T09:05:51.532Z,11.58
2023-05-19T09:08:19.835Z,11.58
2023-05-19T09:10:47.817Z,11.51
2023-05-19T09:13:16.184Z,11.46
2023-05-19T09:15:46.034Z,11.38
2023-05-19T09:18:14.873Z,11.29
2023-05-19T09:20:44.832Z,11.32
2023-05-19T09:23:17.580Z,11.29
2023-05-19T09:25:49.758Z,11.30
2023-05-19T09:28:28.198Z,11.25
2023-05-19T09:31:03.119Z,11.23
2023-05-19T09:33:32.431Z,11.15
2023-05-19T09:36:01.996Z,11.14
2023-05-19T09:38:30.888Z,11.09
2023-05-19T09:40:59.303Z,11.10
2023-05-19T09:43:31.287Z,11.02
2023-05-19T09:46:05.492Z,11.01
2023-05-19T09:48:34.254Z,10.96
2023-05-19T09:51:03.726Z,10.98
2023-05-19T09:53:33.061Z,10.87
2023-05-19T09:56:03.346Z,10.76
2023-05-19T09:58:38.763Z,10.73
2023-05-19T10:01:08.034Z,10.63
2023-05-19T10:03:36.445Z,10.60
2023-05-19T10:06:06.489Z,10.65
2023-05-19T10:08:35.686Z,10.58
2023-05-19T10:11:04.831Z,10.55
2023-05-19T10:13:33.589Z,10.67
2023-05-19T10:16:02.336Z,10.71
2023-05-19T10:18:30.924Z,10.64
2023-05-19T10:20:59.264Z,10.68
2023-05-19T10:23:29.109Z,10.64
2023-05-19T10:25:58.800Z,10.57
2023-05-19T10:28:29.576Z,10.56
2023-05-19T10:31:00.377Z,10.56
2023-05-19T10:33:38.565Z,10.59
2023-05-19T10:36:10.813Z,10.56
2023-05-19T10:38:46.473Z,10.50
2023-05-19T10:41:33.403Z,10.46
2023-05-19T10:44:11.063Z,10.43
2023-05-19T10:46:41.468Z,10.42
2023-05-19T10:49:10.170Z,10.34
2023-05-19T10:51:38.685Z,10.33
2023-05-19T10:54:15.426Z,10.25
2023-05-19T10:56:47.220Z,10.22
2023-05-19T10:59:36.485Z,10.20
2023-05-19T11:02:08.864Z,10.16
2023-05-19T11:04:52.229Z,10.11
2023-05-19T11:07:21.803Z,10.13
2023-05-19T11:09:56.042Z,10.09
2023-05-19T11:12:25.385Z,10.04
2023-05-19T11:14:55.906Z,10.04
2023-05-19T11:17:27.301Z,10.03
2023-05-19T11:19:56.638Z,9.94
2023-05-19T11:22:26.435Z,9.96
2023-05-19T11:24:58.152Z,9.99
2023-05-19T11:27:32.727Z,9.96
2023-05-19T11:30:06.866Z,9.86
2023-05-19T11:32:36.348Z,9.88
2023-05-19T11:35:04.382Z,9.94
2023-05-19T11:37:36.370Z,9.89
2023-05-19T11:40:07.043Z,9.87
2023-05-19T11:42:38.262Z,9.85
2023-05-19T11:45:06.897Z,9.86
2023-05-19T11:47:45.895Z,9.90
2023-05-19T11:50:21.545Z,9.91
2023-05-19T11:52:49.917Z,9.91
2023-05-19T11:55:18.746Z,9.85
2023-05-19T11:58:05.446Z,9.82
2023-05-19T12:00:40.767Z,9.85
2023-05-19T12:03:09.968Z,9.85
2023-05-19T12:05:42.959Z,9.84
2023-05-19T12:08:12.810Z,9.91
2023-05-19T12:10:42.739Z,9.92
2023-05-19T12:13:11.266Z,9.97
2023-05-19T12:15:40.843Z,9.96
2023-05-19T12:18:09.626Z,9.99
2023-05-19T12:20:38.739Z,9.99
2023-05-19T12:23:07.224Z,10.02
2023-05-19T12:25:35.761Z,10.01
2023-05-19T12:28:06.623Z,10.08
2023-05-19T12:30:36.145Z,10.03
2023-05-19T12:33:04.731Z,10.00
2023-05-19T12:35:37.264Z,10.04
2023-05-19T12:38:07.743Z,10.07
2023-05-19T12:40:36.900Z,10.09
2023-05-19T12:43:05.593Z,10.14
2023-05-19T12:45:38.329Z,10.17
2023-05-19T12:48:07.893Z,10.20
2023-05-19T12:50:36.439Z,10.25
2023-05-19T12:53:05.318Z,10.25
2023-05-19T12:55:38.345Z,10.28
2023-05-19T12:58:08.291Z,10.34
2023-05-19T13:00:41.942Z,10.38
2023-05-19T13:03:17.518Z,10.42
2023-05-19T13:05:50.304Z,10.48
2023-05-19T13:08:19.483Z,10.51
2023-05-19T13:10:48.595Z,10.59
2023-05-19T13:13:17.260Z,10.60
2023-05-19T13:15:46.813Z,10.65
2023-05-19T13:18:15.234Z,10.64
2023-05-19T13:20:44.165Z,10.70
2023-05-19T13:23:12.385Z,10.77
2023-05-19T13:25:41.424Z,10.82
2023-05-19T13:28:09.785Z,10.89
2023-05-19T13:30:39.610Z,10.88
2023-05-19T13:33:08.314Z,10.99
2023-05-19T13:35:39.439Z,10.95
2023-05-19T13:38:08.399Z,11.05
2023-05-19T13:40:36.801Z,11.06
2023-05-19T13:43:05.368Z,11.11
2023-05-19T13:45:33.729Z,11.25
2023-05-19T13:48:02.203Z,11.26
2023-05-19T13:50:30.577Z,11.31
2023-05-19T13:52:59.006Z,11.37
2023-05-19T13:55:28.945Z,11.48
2023-05-19T13:57:56.825Z,11.57
2023-05-19T14:00:25.027Z,11.70
2023-05-19T14:02:54.267Z,11.58
2023-05-19T14:05:22.620Z,11.65
2023-05-19T14:07:50.765Z,11.63
2023-05-19T14:10:19.213Z,11.79
2023-05-19T14:13:14.098Z,11.70
2023-05-19T14:15:38.926Z,11.76
2023-05-19T14:18:07.538Z,11.89
2023-05-19T14:20:36.288Z,11.97
2023-05-19T14:23:04.493Z,12.03
2023-05-19T14:25:32.997Z,12.21
2023-05-19T14:28:01.451Z,12.23
2023-05-19T14:30:30.303Z,12.20
2023-05-19T14:32:58.586Z,12.28
2023-05-19T14:35:27.379Z,12.41
2023-05-19T14:37:56.545Z,12.50
2023-05-19T14:40:24.672Z,12.59
2023-05-19T14:42:53.116Z,12.67
2023-05-19T14:45:21.334Z,12.85
2023-05-19T14:47:49.305Z,12.90
2023-05-19T14:50:18.646Z,13.17
2023-05-19T14:52:46.624Z,13.15
2023-05-19T14:55:15.879Z,13.19
2023-05-19T14:57:45.211Z,13.28
2023-05-19T15:00:14.083Z,13.30
2023-05-19T15:02:42.315Z,13.43
2023-05-19T15:05:10.968Z,13.67
2023-05-19T15:07:39.230Z,13.93
2023-05-19T15:10:07.886Z,13.94
2023-05-19T15:12:36.275Z,14.13
2023-05-19T15:15:04.924Z,14.42
2023-05-19T15:17:32.875Z,14.38
2023-05-19T15:20:00.900Z,14.43
2023-05-19T15:22:29.272Z,14.63
2023-05-19T15:24:57.651Z,14.83
2023-05-19T15:27:25.652Z,15.01
2023-05-19T15:29:53.807Z,15.21
2023-05-19T15:32:23.143Z,15.36
2023-05-19T15:34:51.679Z,15.42
2023-05-19T15:37:19.552Z,15.78
2023-05-19T15:39:47.906Z,16.06
2023-05-19T15:42:16.060Z,16.32
2023-05-19T15:44:47.159Z,16.23
2023-05-19T15:47:15.543Z,16.58
2023-05-19T15:49:43.533Z,16.79
2023-05-19T15:52:11.709Z,17.05
2023-05-19T15:54:40.010Z,17.28
2023-05-19T15:57:07.821Z,17.35
2023-05-19T15:59:36.296Z,17.30
2023-05-19T16:02:05.259Z,17.79
2023-05-19T16:04:34.640Z,17.83
2023-05-19T16:07:02.846Z,18.19
2023-05-19T16:09:31.179Z,18.46
2023-05-19T16:12:00.461Z,18.77
2023-05-19T16:14:32.417Z,18.94
2023-05-19T16:17:01.077Z,19.13
2023-05-19T16:19:30.493Z,19.42
2023-05-19T16:21:58.525Z,19.53
2023-05-19T16:24:26.932Z,19.81
2023-05-19T16:26:54.887Z,19.74
2023-05-19T16:29:23.211Z,20.30
2023-05-19T16:31:51.193Z,20.29
2023-05-19T16:34:19.530Z,20.48
2023-05-19T16:36:47.164Z,20.66
2023-05-19T16:39:15.740Z,20.68
2023-05-19T16:41:43.883Z,21.25
2023-05-19T16:44:16.093Z,21.25
2023-05-19T16:46:45.216Z,21.39
2023-05-19T16:49:13.583Z,21.64
2023-05-19T16:51:41.681Z,21.71
2023-05-19T16:54:09.592Z,21.97
2023-05-19T17:00:30.554Z,22.26
2023-05-19T17:06:51.263Z,22.36
2023-05-19T17:09:26.264Z,22.03
2023-05-19T17:11:55.509Z,22.39
2023-05-19T17:14:24.240Z,21.82
2023-05-19T17:16:53.716Z,22.55
2023-05-19T17:19:22.418Z,22.81
2023-05-19T17:21:51.159Z,23.30
2023-05-19T17:24:19.700Z,23.65
2023-05-19T17:26:48.240Z,23.69
2023-05-19T17:29:16.623Z,23.91
2023-05-19T17:31:45.326Z,23.55
2023-05-19T17:34:13.956Z,23.50
2023-05-19T17:36:42.409Z,23.75
2023-05-19T17:39:10.937Z,24.41
2023-05-19T17:41:39.720Z,24.34
2023-05-19T17:44:08.596Z,24.25
2023-05-19T17:46:37.488Z,23.96
2023-05-19T17:49:06.311Z,24.52
2023-05-19T17:51:35.242Z,25.05
2023-05-19T17:54:04.075Z,25.25
2023-05-19T17:56:35.512Z,24.94
2023-05-19T17:59:04.411Z,24.14
2023-05-19T18:01:33.645Z,24.83
2023-05-19T18:04:02.807Z,25.31
2023-05-19T18:06:33.181Z,24.37
2023-05-19T18:09:04.963Z,25.41
2023-05-19T18:11:33.615Z,25.68
2023-05-19T18:14:02.211Z,25.50
2023-05-19T18:16:30.900Z,25.80
2023-05-19T18:18:59.607Z,25.63
2023-05-19T18:21:28.197Z,25.37
2023-05-19T18:23:56.795Z,25.27
2023-05-19T18:26:25.177Z,25.03
2023-05-19T18:28:53.716Z,25.16
2023-05-19T18:31:22.334Z,25.52
2023-05-19T18:33:51.141Z,25.43
2023-05-19T18:36:20.459Z,25.52
2023-05-19T18:38:49.244Z,25.28
2023-05-19T18:41:17.821Z,25.83
2023-05-19T18:43:46.400Z,25.94
2023-05-19T18:46:14.957Z,26.35
2023-05-19T18:48:43.605Z,25.92
2023-05-19T18:51:12.192Z,25.92
2023-05-19T18:53:40.699Z,26.29
2023-05-19T18:56:09.551Z,25.60
2023-05-19T18:58:38.123Z,25.36
2023-05-19T19:01:06.748Z,25.55
2023-05-19T19:03:35.517Z,26.26
2023-05-19T19:06:04.087Z,26.15
2023-05-19T19:08:32.939Z,26.17
2023-05-19T19:11:02.284Z,26.14
2023-05-19T19:13:30.846Z,26.42
2023-05-19T19:15:59.454Z,26.12
2023-05-19T19:18:28.238Z,26.17
2023-05-19T19:21:00.991Z,26.26
2023-05-19T19:23:29.664Z,25.95
2023-05-19T19:25:57.693Z,25.84
2023-05-19T19:28:26.418Z,26.07
2023-05-19T19:30:55.028Z,26.06
2023-05-19T19:33:23.707Z,26.10
2023-05-19T19:35:52.290Z,26.02
2023-05-19T19:38:20.889Z,26.08
2023-05-19T19:40:49.582Z,26.12
2023-05-19T19:43:18.179Z,26.25
2023-05-19T19:45:46.397Z,26.26
2023-05-19T19:48:14.932Z,26.53
2023-05-19T19:50:43.570Z,26.27
2023-05-19T19:53:12.180Z,26.28
2023-05-19T19:55:41.263Z,25.83
2023-05-19T19:58:09.819Z,25.62
2023-05-19T20:00:38.409Z,25.54
2023-05-19T20:03:07.024Z,25.45
2023-05-19T20:05:35.982Z,25.33
2023-05-19T20:08:04.980Z,25.00
2023-05-19T20:10:33.778Z,25.07
2023-05-19T20:13:02.566Z,25.03
2023-05-19T20:15:31.192Z,25.43
2023-05-19T20:17:59.809Z,25.66
2023-05-19T20:20:28.231Z,25.57
2023-05-19T20:22:56.780Z,25.67
2023-05-19T20:25:25.504Z,25.82
2023-05-19T20:27:54.111Z,25.70
2023-05-19T20:30:22.715Z,25.71
2023-05-19T20:32:51.453Z,25.99
2023-05-19T20:35:20.202Z,25.88
2023-05-19T20:37:49.391Z,25.75
2023-05-19T20:40:18.023Z,25.24
2023-05-19T20:42:47.512Z,25.08
2023-05-19T20:45:16.139Z,24.93
2023-05-19T20:47:44.987Z,24.87
2023-05-19T20:50:13.670Z,24.72
2023-05-19T20:52:42.615Z,24.82
2023-05-19T20:55:11.287Z,24.89
2023-05-19T20:57:39.943Z,25.19
2023-05-19T21:00:09.079Z,25.51
2023-05-19T21:02:48.031Z,25.44
2023-05-19T21:05:30.216Z,25.67
2023-05-19T21:08:13.943Z,25.78
2023-05-19T21:13:30.812Z,25.93
2023-05-19T21:16:11.598Z,25.94
2023-05-19T21:18:41.083Z,25.80
2023-05-19T21:21:09.533Z,26.05
2023-05-19T21:23:38.018Z,26.33
2023-05-19T21:26:07.747Z,26.28
2023-05-19T21:28:36.387Z,26.24
2023-05-19T21:31:06.577Z,26.28
2023-05-19T21:33:35.295Z,26.22
2023-05-19T21:36:03.846Z,26.01
2023-05-19T21:38:32.005Z,25.97
2023-05-19T21:41:00.761Z,26.17
2023-05-19T21:43:29.316Z,26.16
2023-05-19T21:45:57.661Z,25.97
2023-05-19T21:48:26.430Z,26.03
2023-05-19T21:50:56.238Z,26.00
2023-05-19T21:53:24.938Z,26.02
2023-05-19T21:55:53.787Z,25.82
2023-05-19T21:58:22.382Z,25.76
2023-05-19T22:00:52.282Z,25.37
2023-05-19T22:03:20.593Z,25.37
2023-05-19T22:05:56.816Z,25.19
2023-05-19T22:08:25.898Z,25.17
2023-05-19T22:10:54.575Z,25.09
2023-05-19T22:13:23.202Z,24.98
2023-05-19T22:15:52.107Z,24.79
2023-05-19T22:18:20.656Z,24.66
2023-05-19T22:20:49.152Z,24.48
2023-05-19T22:23:17.771Z,24.48
2023-05-19T22:25:46.424Z,24.57
2023-05-19T22:28:14.892Z,24.63
2023-05-19T22:30:43.420Z,24.76
2023-05-19T22:33:14.273Z,24.71
2023-05-19T22:35:43.859Z,24.77
2023-05-19T22:38:13.073Z,24.74
2023-05-19T22:40:41.761Z,24.75
2023-05-19T22:43:10.407Z,24.76
2023-05-19T22:45:39.182Z,24.82
2023-05-19T22:48:07.929Z,24.88
2023-05-19T22:50:36.733Z,24.78
2023-05-19T22:53:05.248Z,24.79
2023-05-19T22:55:33.965Z,24.85
2023-05-19T22:58:02.762Z,24.96
2023-05-19T23:00:31.343Z,25.13
2023-05-19T23:03:00.434Z,25.29
2023-05-19T23:05:29.053Z,25.34
2023-05-19T23:07:57.924Z,25.43
2023-05-19T23:10:26.275Z,25.62
2023-05-19T23:12:54.906Z,25.69
2023-05-19T23:15:23.422Z,25.73
2023-05-19T23:17:52.096Z,25.75
2023-05-19T23:20:20.818Z,25.67
2023-05-19T23:22:49.414Z,25.77
2023-05-19T23:25:18.005Z,25.92
2023-05-19T23:27:47.861Z,25.78
2023-05-19T23:30:16.421Z,25.81
2023-05-19T23:32:44.902Z,25.77
2023-05-19T23:35:15.086Z,25.61
2023-05-19T23:37:43.797Z,25.60
2023-05-19T23:40:12.924Z,25.48
2023-05-19T23:42:41.536Z,25.42
2023-05-19T23:45:10.522Z,25.25
2023-05-19T23:47:39.378Z,25.09
2023-05-19T23:50:08.558Z,24.88
2023-05-19T23:52:37.221Z,24.84
2023-05-19T23:55:07.172Z,24.88
2023-05-19T23:57:35.798Z,24.84
